sensor_id;sensor_type;location;lat;lon;timestamp;pressure;altitude;pressure_sealevel;temperature;humidity
53506;BME280;39388;50.936;6.848;2022-12-10T00:00:54;100204.78;;;1.12;83.70
53506;BME280;39388;50.936;6.848;2022-12-10T00:03:25;100198.66;;;1.03;84.50
53506;BME280;39388;50.936;6.848;2022-12-10T00:05:59;100203.81;;;1.06;84.45
53506;BME280;39388;50.936;6.848;2022-12-10T00:08:30;100213.13;;;1.06;84.07
53506;BME280;39388;50.936;6.848;2022-12-10T00:11:05;100204.63;;;1.05;84.67
53506;BME280;39388;50.936;6.848;2022-12-10T00:13:36;100198.63;;;1.02;84.65
53506;BME280;39388;50.936;6.848;2022-12-10T00:16:09;100200.22;;;0.98;84.57
53506;BME280;39388;50.936;6.848;2022-12-10T00:18:40;100198.50;;;0.97;84.84
53506;BME280;39388;50.936;6.848;2022-12-10T00:21:14;100195.97;;;0.97;84.84
53506;BME280;39388;50.936;6.848;2022-12-10T00:23:46;100195.88;;;0.94;84.27
53506;BME280;39388;50.936;6.848;2022-12-10T00:26:18;100183.81;;;0.85;84.46
53506;BME280;39388;50.936;6.848;2022-12-10T00:28:50;100200.81;;;0.88;84.94
53506;BME280;39388;50.936;6.848;2022-12-10T00:31:29;100200.81;;;0.88;84.16
53506;BME280;39388;50.936;6.848;2022-12-10T00:34:02;100209.25;;;0.87;84.74
53506;BME280;39388;50.936;6.848;2022-12-10T00:36:45;100201.53;;;0.84;85.03
53506;BME280;39388;50.936;6.848;2022-12-10T00:39:18;100200.59;;;0.80;84.67
53506;BME280;39388;50.936;6.848;2022-12-10T00:41:49;100203.91;;;0.77;84.31
53506;BME280;39388;50.936;6.848;2022-12-10T00:44:19;100186.00;;;0.71;84.82
53506;BME280;39388;50.936;6.848;2022-12-10T00:46:50;100197.06;;;0.75;84.56
53506;BME280;39388;50.936;6.848;2022-12-10T00:49:20;100197.06;;;0.75;84.73
53506;BME280;39388;50.936;6.848;2022-12-10T00:51:53;100196.16;;;0.71;84.96
53506;BME280;39388;50.936;6.848;2022-12-10T00:54:23;100197.66;;;0.65;84.81
53506;BME280;39388;50.936;6.848;2022-12-10T00:56:53;100207.03;;;0.67;84.74
53506;BME280;39388;50.936;6.848;2022-12-10T00:59:24;100189.72;;;0.52;85.42
53506;BME280;39388;50.936;6.848;2022-12-10T01:01:54;100204.34;;;0.61;85.22
53506;BME280;39388;50.936;6.848;2022-12-10T01:04:24;100193.19;;;0.56;85.27
53506;BME280;39388;50.936;6.848;2022-12-10T01:06:55;100201.66;;;0.56;85.37
53506;BME280;39388;50.936;6.848;2022-12-10T01:09:27;100208.50;;;0.59;85.26
53506;BME280;39388;50.936;6.848;2022-12-10T01:12:01;100209.25;;;0.56;84.60
53506;BME280;39388;50.936;6.848;2022-12-10T01:14:33;100215.13;;;0.54;85.16
53506;BME280;39388;50.936;6.848;2022-12-10T01:17:04;100216.72;;;0.50;85.38
53506;BME280;39388;50.936;6.848;2022-12-10T01:19:35;100213.31;;;0.50;85.69
53506;BME280;39388;50.936;6.848;2022-12-10T01:22:06;100220.09;;;0.51;85.63
53506;BME280;39388;50.936;6.848;2022-12-10T01:24:36;100220.00;;;0.47;85.04
53506;BME280;39388;50.936;6.848;2022-12-10T01:27:09;100217.28;;;0.40;85.48
53506;BME280;39388;50.936;6.848;2022-12-10T01:29:40;100223.31;;;0.45;85.10
53506;BME280;39388;50.936;6.848;2022-12-10T01:32:10;100232.63;;;0.44;85.98
53506;BME280;39388;50.936;6.848;2022-12-10T01:34:41;100235.09;;;0.43;85.77
53506;BME280;39388;50.936;6.848;2022-12-10T01:37:11;100231.63;;;0.39;85.51
53506;BME280;39388;50.936;6.848;2022-12-10T01:39:41;100247.84;;;0.44;85.17
53506;BME280;39388;50.936;6.848;2022-12-10T01:42:13;100242.72;;;0.43;85.79
53506;BME280;39388;50.936;6.848;2022-12-10T01:47:14;100241.91;;;0.44;85.95
53506;BME280;39388;50.936;6.848;2022-12-10T01:49:44;100241.78;;;0.39;86.02
53506;BME280;39388;50.936;6.848;2022-12-10T01:52:15;100246.84;;;0.39;85.82
53506;BME280;39388;50.936;6.848;2022-12-10T01:54:45;100245.94;;;0.37;86.21
53506;BME280;39388;50.936;6.848;2022-12-10T01:57:18;100253.44;;;0.34;85.41
53506;BME280;39388;50.936;6.848;2022-12-10T01:59:50;100250.88;;;0.32;85.94
53506;BME280;39388;50.936;6.848;2022-12-10T02:02:30;100244.97;;;0.32;86.12
53506;BME280;39388;50.936;6.848;2022-12-10T02:13:39;100253.91;;;0.21;85.36
53506;BME280;39388;50.936;6.848;2022-12-10T02:16:16;100263.22;;;0.22;86.18
53506;BME280;39388;50.936;6.848;2022-12-10T02:18:57;100254.72;;;0.20;85.73
53506;BME280;39388;50.936;6.848;2022-12-10T02:21:33;100262.31;;;0.20;85.55
53506;BME280;39388;50.936;6.848;2022-12-10T02:24:08;100259.75;;;0.18;85.54
53506;BME280;39388;50.936;6.848;2022-12-10T02:29:24;100241.81;;;0.12;85.83
53506;BME280;39388;50.936;6.848;2022-12-10T02:32:08;100257.22;;;0.18;86.17
53506;BME280;39388;50.936;6.848;2022-12-10T02:34:48;100217.78;;;-0.01;86.03
53506;BME280;39388;50.936;6.848;2022-12-10T02:37:34;100248.78;;;0.19;85.63
53506;BME280;39388;50.936;6.848;2022-12-10T02:40:12;100252.19;;;0.20;85.60
53506;BME280;39388;50.936;6.848;2022-12-10T02:42:46;100247.06;;;0.18;85.98
53506;BME280;39388;50.936;6.848;2022-12-10T02:45:20;100259.84;;;0.21;86.30
53506;BME280;39388;50.936;6.848;2022-12-10T02:47:55;100258.06;;;0.19;85.63
53506;BME280;39388;50.936;6.848;2022-12-10T02:50:27;100261.47;;;0.19;86.04
53506;BME280;39388;50.936;6.848;2022-12-10T02:52:57;100247.84;;;0.15;85.61
53506;BME280;39388;50.936;6.848;2022-12-10T02:55:37;100260.69;;;0.22;85.62
53506;BME280;39388;50.936;6.848;2022-12-10T02:58:29;100259.16;;;0.27;86.51
53506;BME280;39388;50.936;6.848;2022-12-10T03:01:08;100261.94;;;0.35;86.06
53506;BME280;39388;50.936;6.848;2022-12-10T03:04:03;100264.59;;;0.39;85.32
53506;BME280;39388;50.936;6.848;2022-12-10T03:06:45;100269.75;;;0.42;85.57
53506;BME280;39388;50.936;6.848;2022-12-10T03:09:22;100271.59;;;0.46;85.51
53506;BME280;39388;50.936;6.848;2022-12-10T03:12:07;100286.13;;;0.52;85.18
53506;BME280;39388;50.936;6.848;2022-12-10T03:14:40;100275.09;;;0.52;85.44
53506;BME280;39388;50.936;6.848;2022-12-10T03:17:11;100272.63;;;0.53;85.68
53506;BME280;39388;50.936;6.848;2022-12-10T03:19:46;100278.72;;;0.60;85.06
53506;BME280;39388;50.936;6.848;2022-12-10T03:22:19;100277.97;;;0.64;85.39
53506;BME280;39388;50.936;6.848;2022-12-10T03:24:50;100264.44;;;0.63;84.98
53506;BME280;39388;50.936;6.848;2022-12-10T03:27:23;100269.63;;;0.68;85.08
53506;BME280;39388;50.936;6.848;2022-12-10T03:29:56;100277.38;;;0.73;85.30
53506;BME280;39388;50.936;6.848;2022-12-10T03:32:28;100270.66;;;0.73;84.70
53506;BME280;39388;50.936;6.848;2022-12-10T03:35:00;100274.91;;;0.74;84.97
53506;BME280;39388;50.936;6.848;2022-12-10T03:37:31;100270.75;;;0.78;85.10
53506;BME280;39388;50.936;6.848;2022-12-10T03:40:04;100273.34;;;0.80;84.41
53506;BME280;39388;50.936;6.848;2022-12-10T03:42:36;100260.53;;;0.75;84.43
53506;BME280;39388;50.936;6.848;2022-12-10T03:45:07;100277.56;;;0.79;84.18
53506;BME280;39388;50.936;6.848;2022-12-10T03:47:37;100278.38;;;0.78;84.04
53506;BME280;39388;50.936;6.848;2022-12-10T03:50:08;100283.53;;;0.81;84.49
53506;BME280;39388;50.936;6.848;2022-12-10T03:52:39;100279.34;;;0.83;84.08
53506;BME280;39388;50.936;6.848;2022-12-10T03:55:10;100285.31;;;0.84;84.31
53506;BME280;39388;50.936;6.848;2022-12-10T03:57:40;100281.00;;;0.81;84.23
53506;BME280;39388;50.936;6.848;2022-12-10T04:00:11;100279.28;;;0.80;84.90
53506;BME280;39388;50.936;6.848;2022-12-10T04:02:42;100273.34;;;0.80;84.09
53506;BME280;39388;50.936;6.848;2022-12-10T04:05:12;100287.97;;;0.88;84.19
53506;BME280;39388;50.936;6.848;2022-12-10T04:07:42;100280.22;;;0.84;84.03
53506;BME280;39388;50.936;6.848;2022-12-10T04:10:13;100287.94;;;0.87;83.73
53506;BME280;39388;50.936;6.848;2022-12-10T04:12:43;100274.09;;;0.75;83.96
53506;BME280;39388;50.936;6.848;2022-12-10T04:15:33;100291.09;;;0.80;84.29
53506;BME280;39388;50.936;6.848;2022-12-10T04:18:26;100292.09;;;0.85;83.50
53506;BME280;39388;50.936;6.848;2022-12-10T04:20:56;100276.56;;;0.74;84.09
53506;BME280;39388;50.936;6.848;2022-12-10T04:23:45;100300.53;;;0.84;83.62
53506;BME280;39388;50.936;6.848;2022-12-10T04:26:34;100304.00;;;0.87;83.32
53506;BME280;39388;50.936;6.848;2022-12-10T04:29:24;100306.41;;;0.83;83.07
53506;BME280;39388;50.936;6.848;2022-12-10T04:31:56;100313.25;;;0.85;82.94
53506;BME280;39388;50.936;6.848;2022-12-10T04:34:27;100314.94;;;0.85;83.45
53506;BME280;39388;50.936;6.848;2022-12-10T04:36:58;100313.22;;;0.84;82.80
53506;BME280;39388;50.936;6.848;2022-12-10T04:39:29;100303.84;;;0.81;83.21
53506;BME280;39388;50.936;6.848;2022-12-10T04:42:01;100301.34;;;0.83;83.43
53506;BME280;39388;50.936;6.848;2022-12-10T04:44:32;100300.72;;;0.90;83.79
53506;BME280;39388;50.936;6.848;2022-12-10T04:47:06;100298.19;;;0.91;83.33
53506;BME280;39388;50.936;6.848;2022-12-10T04:49:37;100304.22;;;0.95;83.35
53506;BME280;39388;50.936;6.848;2022-12-10T04:52:11;100307.69;;;0.99;83.30
53506;BME280;39388;50.936;6.848;2022-12-10T04:54:43;100305.13;;;0.97;83.30
53506;BME280;39388;50.936;6.848;2022-12-10T04:57:13;100316.13;;;0.98;83.15
53506;BME280;39388;50.936;6.848;2022-12-10T04:59:44;100304.22;;;0.95;82.95
53506;BME280;39388;50.936;6.848;2022-12-10T05:02:14;100305.97;;;0.98;83.44
53506;BME280;39388;50.936;6.848;2022-12-10T05:04:44;100296.50;;;0.92;82.94
53506;BME280;39388;50.936;6.848;2022-12-10T05:07:15;100297.38;;;0.92;83.13
53506;BME280;39388;50.936;6.848;2022-12-10T05:09:45;100300.03;;;0.96;83.10
53506;BME280;39388;50.936;6.848;2022-12-10T05:12:16;100295.75;;;0.95;82.91
53506;BME280;39388;50.936;6.848;2022-12-10T05:14:46;100292.34;;;0.94;82.87
53506;BME280;39388;50.936;6.848;2022-12-10T05:17:16;100300.16;;;1.02;82.76
53506;BME280;39388;50.936;6.848;2022-12-10T05:19:47;100295.16;;;1.03;83.12
53506;BME280;39388;50.936;6.848;2022-12-10T05:22:17;100302.00;;;1.07;83.04
53506;BME280;39388;50.936;6.848;2022-12-10T05:25:06;100307.97;;;1.08;83.27
53506;BME280;39388;50.936;6.848;2022-12-10T05:27:37;100302.81;;;1.06;82.92
53506;BME280;39388;50.936;6.848;2022-12-10T05:30:08;100301.19;;;1.08;83.38
53506;BME280;39388;50.936;6.848;2022-12-10T05:32:39;100301.97;;;1.06;82.65
53506;BME280;39388;50.936;6.848;2022-12-10T05:35:09;100298.66;;;1.08;83.26
53506;BME280;39388;50.936;6.848;2022-12-10T05:37:40;100310.72;;;1.16;83.66
53506;BME280;39388;50.936;6.848;2022-12-10T05:40:10;100297.91;;;1.11;83.44
53506;BME280;39388;50.936;6.848;2022-12-10T05:42:41;100301.38;;;1.15;82.72
53506;BME280;39388;50.936;6.848;2022-12-10T05:45:11;100303.84;;;1.13;83.36
53506;BME280;39388;50.936;6.848;2022-12-10T05:47:41;100308.09;;;1.13;83.30
53506;BME280;39388;50.936;6.848;2022-12-10T05:50:12;100298.91;;;1.18;83.62
53506;BME280;39388;50.936;6.848;2022-12-10T05:52:42;100311.69;;;1.21;83.53
53506;BME280;39388;50.936;6.848;2022-12-10T05:55:12;100318.59;;;1.27;83.61
53506;BME280;39388;50.936;6.848;2022-12-10T05:57:43;100308.31;;;1.22;83.75
53506;BME280;39388;50.936;6.848;2022-12-10T06:00:13;100317.03;;;1.30;83.65
53506;BME280;39388;50.936;6.848;2022-12-10T06:02:44;100315.22;;;1.26;83.38
53506;BME280;39388;50.936;6.848;2022-12-10T06:05:14;100316.13;;;1.28;83.48
53506;BME280;39388;50.936;6.848;2022-12-10T06:07:45;100317.91;;;1.32;83.50
53506;BME280;39388;50.936;6.848;2022-12-10T06:10:15;100328.22;;;1.38;83.53
53506;BME280;39388;50.936;6.848;2022-12-10T06:12:45;100317.13;;;1.35;83.79
53506;BME280;39388;50.936;6.848;2022-12-10T06:15:16;100313.66;;;1.31;83.34
53506;BME280;39388;50.936;6.848;2022-12-10T06:17:46;100313.78;;;1.36;83.84
53506;BME280;39388;50.936;6.848;2022-12-10T06:20:17;100325.75;;;1.40;83.21
53506;BME280;39388;50.936;6.848;2022-12-10T06:22:47;100322.31;;;1.39;83.90
53506;BME280;39388;50.936;6.848;2022-12-10T06:25:18;100317.22;;;1.38;83.70
53506;BME280;39388;50.936;6.848;2022-12-10T06:27:48;100315.50;;;1.37;83.99
53506;BME280;39388;50.936;6.848;2022-12-10T06:30:19;100315.44;;;1.35;84.19
53506;BME280;39388;50.936;6.848;2022-12-10T06:32:49;100305.28;;;1.35;84.15
53506;BME280;39388;50.936;6.848;2022-12-10T06:35:19;100317.16;;;1.36;84.00
53506;BME280;39388;50.936;6.848;2022-12-10T06:37:50;100319.78;;;1.39;83.80
53506;BME280;39388;50.936;6.848;2022-12-10T06:40:21;100332.50;;;1.41;84.37
53506;BME280;39388;50.936;6.848;2022-12-10T06:42:51;100329.97;;;1.41;84.09
53506;BME280;39388;50.936;6.848;2022-12-10T06:45:22;100341.09;;;1.45;83.99
53506;BME280;39388;50.936;6.848;2022-12-10T06:47:52;100326.56;;;1.39;83.73
53506;BME280;39388;50.936;6.848;2022-12-10T06:50:23;100336.78;;;1.42;83.97
53506;BME280;39388;50.936;6.848;2022-12-10T06:52:53;100343.59;;;1.43;83.28
53506;BME280;39388;50.936;6.848;2022-12-10T06:55:24;100344.38;;;1.41;84.05
53506;BME280;39388;50.936;6.848;2022-12-10T06:57:54;100345.16;;;1.38;84.06
53506;BME280;39388;50.936;6.848;2022-12-10T07:00:24;100345.22;;;1.41;83.90
53506;BME280;39388;50.936;6.848;2022-12-10T07:02:55;100353.59;;;1.37;83.85
53506;BME280;39388;50.936;6.848;2022-12-10T07:05:25;100357.06;;;1.39;83.73
53506;BME280;39388;50.936;6.848;2022-12-10T07:07:55;100344.19;;;1.34;84.15
53506;BME280;39388;50.936;6.848;2022-12-10T07:10:26;100359.63;;;1.41;84.12
53506;BME280;39388;50.936;6.848;2022-12-10T07:12:56;100364.72;;;1.42;84.32
53506;BME280;39388;50.936;6.848;2022-12-10T07:15:27;100366.44;;;1.43;84.17
53506;BME280;39388;50.936;6.848;2022-12-10T07:17:58;100372.41;;;1.44;84.44
53506;BME280;39388;50.936;6.848;2022-12-10T07:20:29;100371.59;;;1.45;84.24
53506;BME280;39388;50.936;6.848;2022-12-10T07:22:59;100369.78;;;1.41;83.91
53506;BME280;39388;50.936;6.848;2022-12-10T07:25:30;100367.28;;;1.42;84.04
53506;BME280;39388;50.936;6.848;2022-12-10T07:28:00;100374.06;;;1.43;84.63
53506;BME280;39388;50.936;6.848;2022-12-10T07:30:30;100371.59;;;1.45;84.01
53506;BME280;39388;50.936;6.848;2022-12-10T07:33:02;100365.53;;;1.41;83.82
53506;BME280;39388;50.936;6.848;2022-12-10T07:35:32;100379.28;;;1.48;84.20
53506;BME280;39388;50.936;6.848;2022-12-10T07:38:02;100375.84;;;1.46;84.11
53506;BME280;39388;50.936;6.848;2022-12-10T07:40:33;100379.22;;;1.45;84.03
53506;BME280;39388;50.936;6.848;2022-12-10T07:43:03;100381.81;;;1.48;84.24
53506;BME280;39388;50.936;6.848;2022-12-10T07:45:34;100384.56;;;1.55;83.92
53506;BME280;39388;50.936;6.848;2022-12-10T07:48:04;100382.91;;;1.56;84.25
53506;BME280;39388;50.936;6.848;2022-12-10T07:50:35;100390.63;;;1.61;84.40
53506;BME280;39388;50.936;6.848;2022-12-10T07:53:05;100391.63;;;1.66;84.40
53506;BME280;39388;50.936;6.848;2022-12-10T07:55:36;100385.72;;;1.67;84.27
53506;BME280;39388;50.936;6.848;2022-12-10T07:58:06;100394.22;;;1.69;84.28
53506;BME280;39388;50.936;6.848;2022-12-10T08:00:37;100398.47;;;1.68;84.57
53506;BME280;39388;50.936;6.848;2022-12-10T08:03:07;100400.16;;;1.68;84.00
53506;BME280;39388;50.936;6.848;2022-12-10T08:05:38;100397.53;;;1.65;84.76
53506;BME280;39388;50.936;6.848;2022-12-10T08:08:08;100409.41;;;1.66;83.94
53506;BME280;39388;50.936;6.848;2022-12-10T08:10:39;100411.16;;;1.68;84.47
53506;BME280;39388;50.936;6.848;2022-12-10T08:13:09;100414.56;;;1.69;84.67
53506;BME280;39388;50.936;6.848;2022-12-10T08:15:39;100412.91;;;1.71;84.24
53506;BME280;39388;50.936;6.848;2022-12-10T08:18:10;100421.53;;;1.76;84.16
53506;BME280;39388;50.936;6.848;2022-12-10T08:20:40;100421.44;;;1.73;84.13
53506;BME280;39388;50.936;6.848;2022-12-10T08:23:11;100426.50;;;1.72;83.76
53506;BME280;39388;50.936;6.848;2022-12-10T08:25:41;100436.59;;;1.68;83.88
53506;BME280;39388;50.936;6.848;2022-12-10T08:28:11;100432.13;;;1.60;83.87
53506;BME280;39388;50.936;6.848;2022-12-10T08:30:48;100437.16;;;1.58;84.45
53506;BME280;39388;50.936;6.848;2022-12-10T08:33:18;100438.91;;;1.61;84.43
53506;BME280;39388;50.936;6.848;2022-12-10T08:35:49;100428.66;;;1.58;84.55
53506;BME280;39388;50.936;6.848;2022-12-10T08:38:19;100438.94;;;1.62;84.30
53506;BME280;39388;50.936;6.848;2022-12-10T08:40:49;100444.91;;;1.63;84.72
53506;BME280;39388;50.936;6.848;2022-12-10T08:43:20;100441.59;;;1.65;84.70
53506;BME280;39388;50.936;6.848;2022-12-10T08:45:50;100439.16;;;1.70;83.92
53506;BME280;39388;50.936;6.848;2022-12-10T08:48:21;100452.84;;;1.74;84.42
53506;BME280;39388;50.936;6.848;2022-12-10T08:50:51;100444.31;;;1.73;84.26
53506;BME280;39388;50.936;6.848;2022-12-10T08:53:22;100451.25;;;1.79;83.80
53506;BME280;39388;50.936;6.848;2022-12-10T08:55:53;100454.63;;;1.78;83.29
53506;BME280;39388;50.936;6.848;2022-12-10T08:58:24;100443.38;;;1.68;83.76
53506;BME280;39388;50.936;6.848;2022-12-10T09:00:54;100438.19;;;1.65;83.62
53506;BME280;39388;50.936;6.848;2022-12-10T09:03:25;100454.63;;;1.78;83.46
53506;BME280;39388;50.936;6.848;2022-12-10T09:05:55;100446.13;;;1.76;83.29
53506;BME280;39388;50.936;6.848;2022-12-10T09:08:26;100451.38;;;1.83;83.17
53506;BME280;39388;50.936;6.848;2022-12-10T09:10:56;100460.78;;;1.86;82.59
53506;BME280;39388;50.936;6.848;2022-12-10T09:13:26;100461.59;;;1.85;82.74
53506;BME280;39388;50.936;6.848;2022-12-10T09:15:57;100460.72;;;1.84;82.69
53506;BME280;39388;50.936;6.848;2022-12-10T09:18:27;100457.13;;;1.76;82.39
53506;BME280;39388;50.936;6.848;2022-12-10T09:20:58;100459.00;;;1.83;82.65
53506;BME280;39388;50.936;6.848;2022-12-10T09:23:28;100460.72;;;1.84;82.85
53506;BME280;39388;50.936;6.848;2022-12-10T09:25:58;100456.47;;;1.83;82.88
53506;BME280;39388;50.936;6.848;2022-12-10T09:28:29;100456.59;;;1.88;82.64
53506;BME280;39388;50.936;6.848;2022-12-10T09:31:00;100461.81;;;1.93;82.08
53506;BME280;39388;50.936;6.848;2022-12-10T09:33:31;100471.28;;;1.98;82.08
53506;BME280;39388;50.936;6.848;2022-12-10T09:36:04;100468.06;;;2.06;82.26
53506;BME280;39388;50.936;6.848;2022-12-10T09:38:39;100463.06;;;2.09;82.02
53506;BME280;39388;50.936;6.848;2022-12-10T09:44:31;100471.03;;;2.23;81.86
53506;BME280;39388;50.936;6.848;2022-12-10T09:47:04;100469.41;;;2.25;81.16
53506;BME280;39388;50.936;6.848;2022-12-10T09:49:56;100462.53;;;2.22;80.94
53506;BME280;39388;50.936;6.848;2022-12-10T09:52:41;100468.34;;;2.16;81.50
53506;BME280;39388;50.936;6.848;2022-12-10T09:55:15;100469.22;;;2.19;81.33
53506;BME280;39388;50.936;6.848;2022-12-10T09:57:48;100475.25;;;2.22;81.70
53506;BME280;39388;50.936;6.848;2022-12-10T10:00:21;100477.16;;;2.31;81.62
53506;BME280;39388;50.936;6.848;2022-12-10T10:02:55;100474.69;;;2.33;81.22
53506;BME280;39388;50.936;6.848;2022-12-10T10:05:41;100484.00;;;2.34;81.41
53506;BME280;39388;50.936;6.848;2022-12-10T10:08:34;100484.06;;;2.35;81.14
53506;BME280;39388;50.936;6.848;2022-12-10T10:11:14;100486.72;;;2.40;81.71
53506;BME280;39388;50.936;6.848;2022-12-10T10:13:52;100461.09;;;2.32;81.41
53506;BME280;39388;50.936;6.848;2022-12-10T10:16:32;100484.19;;;2.40;81.37
53506;BME280;39388;50.936;6.848;2022-12-10T10:19:06;100484.91;;;2.36;80.85
53506;BME280;39388;50.936;6.848;2022-12-10T10:21:44;100483.97;;;2.30;80.78
53506;BME280;39388;50.936;6.848;2022-12-10T10:24:18;100485.63;;;2.30;80.93
53506;BME280;39388;50.936;6.848;2022-12-10T10:26:53;100473.59;;;2.23;81.16
53506;BME280;39388;50.936;6.848;2022-12-10T10:29:26;100479.69;;;2.29;81.04
53506;BME280;39388;50.936;6.848;2022-12-10T10:32:20;100478.16;;;2.36;80.76
53506;BME280;39388;50.936;6.848;2022-12-10T10:34:54;100485.81;;;2.38;81.11
53506;BME280;39388;50.936;6.848;2022-12-10T10:37:31;100475.69;;;2.39;80.78
53506;BME280;39388;50.936;6.848;2022-12-10T10:40:26;100479.09;;;2.40;80.69
53506;BME280;39388;50.936;6.848;2022-12-10T10:42:58;100474.84;;;2.40;80.87
53506;BME280;39388;50.936;6.848;2022-12-10T10:50:40;100474.22;;;2.49;80.70
53506;BME280;39388;50.936;6.848;2022-12-10T10:53:25;100476.88;;;2.54;80.62
53506;BME280;39388;50.936;6.848;2022-12-10T10:55:58;100466.75;;;2.57;80.45
53506;BME280;39388;50.936;6.848;2022-12-10T10:58:30;100476.41;;;2.70;80.50
53506;BME280;39388;50.936;6.848;2022-12-10T11:01:06;100465.41;;;2.71;79.51
53506;BME280;39388;50.936;6.848;2022-12-10T11:03:46;100472.38;;;2.80;79.44
53506;BME280;39388;50.936;6.848;2022-12-10T11:06:16;100469.94;;;2.85;79.66
53506;BME280;39388;50.936;6.848;2022-12-10T11:08:47;100475.19;;;2.91;79.63
53506;BME280;39388;50.936;6.848;2022-12-10T11:11:22;100477.72;;;2.89;79.38
53506;BME280;39388;50.936;6.848;2022-12-10T11:14:35;100466.38;;;2.76;79.64
53506;BME280;39388;50.936;6.848;2022-12-10T11:17:18;100472.50;;;2.85;79.48
53506;BME280;39388;50.936;6.848;2022-12-10T11:22:55;100461.47;;;2.84;79.28
53506;BME280;39388;50.936;6.848;2022-12-10T11:25:53;100470.75;;;2.84;78.43
53506;BME280;39388;50.936;6.848;2022-12-10T11:37:34;100470.50;;;2.71;78.23
53506;BME280;39388;50.936;6.848;2022-12-10T11:51:36;100479.94;;;2.77;77.96
53506;BME280;39388;50.936;6.848;2022-12-10T11:54:30;100480.84;;;2.79;78.42
53506;BME280;39388;50.936;6.848;2022-12-10T12:14:13;100481.81;;;3.22;77.17
53506;BME280;39388;50.936;6.848;2022-12-10T12:17:04;100474.31;;;3.30;76.52
53506;BME280;39388;50.936;6.848;2022-12-10T12:19:42;100481.13;;;3.30;76.34
53506;BME280;39388;50.936;6.848;2022-12-10T12:22:16;100483.63;;;3.28;76.17
53506;BME280;39388;50.936;6.848;2022-12-10T12:25:17;100474.97;;;3.21;75.82
53506;BME280;39388;50.936;6.848;2022-12-10T12:27:57;100473.97;;;3.13;76.56
53506;BME280;39388;50.936;6.848;2022-12-10T12:30:32;100476.50;;;3.12;76.82
53506;BME280;39388;50.936;6.848;2022-12-10T12:33:12;100483.41;;;3.17;76.57
53506;BME280;39388;50.936;6.848;2022-12-10T12:35:51;100480.88;;;3.19;76.47
53506;BME280;39388;50.936;6.848;2022-12-10T12:43:48;100486.06;;;3.22;75.68
53506;BME280;39388;50.936;6.848;2022-12-10T12:46:30;100491.22;;;3.25;76.07
53506;BME280;39388;50.936;6.848;2022-12-10T12:51:45;100488.94;;;3.37;75.75
53506;BME280;39388;50.936;6.848;2022-12-10T12:54:18;100482.28;;;3.44;75.50
53506;BME280;39388;50.936;6.848;2022-12-10T12:57:03;100487.53;;;3.52;75.11
53506;BME280;39388;50.936;6.848;2022-12-10T12:59:56;100485.00;;;3.55;74.93
53506;BME280;39388;50.936;6.848;2022-12-10T13:05:18;100473.00;;;3.49;74.80
53506;BME280;39388;50.936;6.848;2022-12-10T13:11:00;100480.81;;;3.57;75.05
53506;BME280;39388;50.936;6.848;2022-12-10T13:22:11;100476.06;;;3.74;74.32
53506;BME280;39388;50.936;6.848;2022-12-10T13:24:44;100481.16;;;3.74;74.90
53506;BME280;39388;50.936;6.848;2022-12-10T13:46:31;100486.13;;;3.68;74.22
53506;BME280;39388;50.936;6.848;2022-12-10T13:49:03;100486.88;;;3.62;74.61
53506;BME280;39388;50.936;6.848;2022-12-10T13:54:33;100490.25;;;3.63;74.25
53506;BME280;39388;50.936;6.848;2022-12-10T13:57:45;100492.00;;;3.64;74.71
53506;BME280;39388;50.936;6.848;2022-12-10T14:00:17;100486.03;;;3.63;73.83
53506;BME280;39388;50.936;6.848;2022-12-10T14:02:55;100497.28;;;3.73;73.94
53506;BME280;39388;50.936;6.848;2022-12-10T14:08:28;100504.97;;;3.75;74.33
53506;BME280;39388;50.936;6.848;2022-12-10T14:11:01;100508.41;;;3.78;74.07
53506;BME280;39388;50.936;6.848;2022-12-10T14:13:35;100499.91;;;3.78;73.68
53506;BME280;39388;50.936;6.848;2022-12-10T14:16:14;100500.59;;;3.69;74.24
53506;BME280;39388;50.936;6.848;2022-12-10T14:18:52;100503.91;;;3.65;74.54
53506;BME280;39388;50.936;6.848;2022-12-10T14:21:23;100511.44;;;3.59;74.33
53506;BME280;39388;50.936;6.848;2022-12-10T14:23:54;100512.88;;;3.46;74.33
53506;BME280;39388;50.936;6.848;2022-12-10T14:26:30;100506.88;;;3.42;74.94
53506;BME280;39388;50.936;6.848;2022-12-10T14:29:16;100511.00;;;3.37;75.08
53506;BME280;39388;50.936;6.848;2022-12-10T14:31:49;100513.53;;;3.37;75.09
53506;BME280;39388;50.936;6.848;2022-12-10T14:34:25;100510.00;;;3.30;75.53
53506;BME280;39388;50.936;6.848;2022-12-10T14:37:00;100527.19;;;3.39;75.39
53506;BME280;39388;50.936;6.848;2022-12-10T14:39:33;100523.72;;;3.35;75.44
53506;BME280;39388;50.936;6.848;2022-12-10T14:42:05;100528.00;;;3.38;75.07
53506;BME280;39388;50.936;6.848;2022-12-10T14:44:38;100528.81;;;3.37;75.73
53506;BME280;39388;50.936;6.848;2022-12-10T14:47:18;100531.44;;;3.40;75.49
53506;BME280;39388;50.936;6.848;2022-12-10T14:49:51;100536.56;;;3.42;75.66
53506;BME280;39388;50.936;6.848;2022-12-10T14:52:25;100529.81;;;3.42;75.60
53506;BME280;39388;50.936;6.848;2022-12-10T14:55:02;100528.00;;;3.38;75.30
53506;BME280;39388;50.936;6.848;2022-12-10T14:57:42;100523.38;;;3.20;74.87
53506;BME280;39388;50.936;6.848;2022-12-10T15:00:19;100530.19;;;3.21;75.35
53506;BME280;39388;50.936;6.848;2022-12-10T15:02:57;100513.94;;;3.16;75.36
53506;BME280;39388;50.936;6.848;2022-12-10T15:05:31;100527.56;;;3.18;75.68
53506;BME280;39388;50.936;6.848;2022-12-10T15:08:16;100530.88;;;3.14;75.65
53506;BME280;39388;50.936;6.848;2022-12-10T15:10:50;100526.56;;;3.11;75.75
53506;BME280;39388;50.936;6.848;2022-12-10T15:13:27;100537.75;;;3.18;75.76
53506;BME280;39388;50.936;6.848;2022-12-10T15:15:59;100536.03;;;3.15;75.74
53506;BME280;39388;50.936;6.848;2022-12-10T15:21:15;100543.50;;;3.07;75.74
53506;BME280;39388;50.936;6.848;2022-12-10T15:23:48;100539.25;;;3.08;75.89
53506;BME280;39388;50.936;6.848;2022-12-10T15:26:24;100546.84;;;3.06;75.99
53506;BME280;39388;50.936;6.848;2022-12-10T15:32:05;100541.75;;;3.06;75.78